createdAt,value
2018-12-20T00:01:19.811Z,99.90
2018-12-20T00:03:47.477Z,99.90
2018-12-20T00:06:15.023Z,99.90
2018-12-20T00:08:42.527Z,99.90
2018-12-20T00:11:10.030Z,99.90
2018-12-20T00:13:37.507Z,99.90
2018-12-20T00:16:05.006Z,99.90
2018-12-20T00:18:32.548Z,99.90
2018-12-20T00:21:00.080Z,99.90
2018-12-20T00:23:27.748Z,99.90
2018-12-20T00:25:55.354Z,99.90
2018-12-20T00:28:22.904Z,99.90
2018-12-20T00:30:50.396Z,99.90
2018-12-20T00:33:17.880Z,99.90
2018-12-20T00:35:45.418Z,99.90
2018-12-20T00:38:12.973Z,99.90
2018-12-20T00:40:40.643Z,99.90
2018-12-20T00:43:08.193Z,99.90
2018-12-20T00:45:35.774Z,99.90
2018-12-20T00:48:03.415Z,99.90
2018-12-20T00:50:30.936Z,99.90
2018-12-20T00:52:58.378Z,99.90
2018-12-20T00:55:25.824Z,99.90
2018-12-20T00:57:53.340Z,99.90
2018-12-20T01:00:20.970Z,99.90
2018-12-20T01:02:55.070Z,99.90
2018-12-20T01:05:18.004Z,99.90
2018-12-20T01:07:45.548Z,99.90
2018-12-20T01:10:12.964Z,99.90
2018-12-20T01:12:40.431Z,99.90
2018-12-20T01:15:08.060Z,99.90
2018-12-20T01:17:38.702Z,99.90
2018-12-20T01:20:08.398Z,99.90
2018-12-20T01:22:35.984Z,99.90
2018-12-20T01:25:03.907Z,99.90
2018-12-20T01:27:31.467Z,99.90
2018-12-20T01:29:58.974Z,99.90
2018-12-20T01:32:26.540Z,99.90
2018-12-20T01:34:54.020Z,99.90
2018-12-20T01:37:21.706Z,99.90
2018-12-20T01:39:49.204Z,99.90
2018-12-20T01:42:16.764Z,99.90
2018-12-20T01:44:53.212Z,99.90
2018-12-20T01:47:14.769Z,99.90
2018-12-20T01:49:42.287Z,99.90
2018-12-20T01:52:09.850Z,99.90
2018-12-20T01:54:37.577Z,99.90
2018-12-20T01:57:05.031Z,99.90
2018-12-20T01:59:32.501Z,99.90
2018-12-20T02:02:00.039Z,99.90
2018-12-20T02:04:27.535Z,99.90
2018-12-20T02:06:55.000Z,99.90
2018-12-20T02:09:23.471Z,99.90
2018-12-20T02:11:51.171Z,99.90
2018-12-20T02:14:18.846Z,99.90
2018-12-20T02:16:46.651Z,99.90
2018-12-20T02:19:14.208Z,99.90
2018-12-20T02:21:41.658Z,99.90
2018-12-20T02:24:09.109Z,99.90
2018-12-20T02:26:36.580Z,99.90
2018-12-20T02:29:04.233Z,99.90
2018-12-20T02:31:31.727Z,99.90
2018-12-20T02:33:59.258Z,99.90
2018-12-20T02:36:26.778Z,99.90
2018-12-20T02:38:54.292Z,99.90
2018-12-20T02:41:21.902Z,99.90
2018-12-20T02:43:49.722Z,99.90
2018-12-20T02:46:17.433Z,99.90
2018-12-20T02:48:45.075Z,99.90
2018-12-20T02:51:12.691Z,99.90
2018-12-20T02:53:40.225Z,99.90
2018-12-20T02:56:07.661Z,99.90
2018-12-20T02:58:35.121Z,99.90
2018-12-20T03:01:02.730Z,99.90
2018-12-20T03:03:30.326Z,99.90
2018-12-20T03:05:57.890Z,99.90
2018-12-20T03:08:25.566Z,99.90
2018-12-20T03:10:53.092Z,99.90
2018-12-20T03:13:20.540Z,99.90
2018-12-20T03:15:48.062Z,99.90
2018-12-20T03:18:15.540Z,99.90
2018-12-20T03:20:43.421Z,99.90
2018-12-20T03:23:11.070Z,99.90
2018-12-20T03:25:38.744Z,99.90
2018-12-20T03:28:06.546Z,99.90
2018-12-20T03:30:34.120Z,99.90
2018-12-20T03:33:01.857Z,99.90
2018-12-20T03:35:29.906Z,99.90
2018-12-20T03:37:57.408Z,99.90
2018-12-20T03:40:24.866Z,99.90
2018-12-20T03:42:52.329Z,99.90
2018-12-20T03:45:21.241Z,99.90
2018-12-20T03:47:49.283Z,99.90
2018-12-20T03:50:16.800Z,99.90
2018-12-20T03:52:44.624Z,99.90
2018-12-20T03:55:12.197Z,99.90
2018-12-20T03:57:39.810Z,99.90
2018-12-20T04:00:07.882Z,99.90
2018-12-20T04:02:35.336Z,99.90
2018-12-20T04:05:02.972Z,99.90
2018-12-20T04:07:30.586Z,99.90
2018-12-20T04:09:58.143Z,99.90
2018-12-20T04:12:25.636Z,99.90
2018-12-20T04:14:53.134Z,99.90
2018-12-20T04:17:20.845Z,99.90
2018-12-20T04:19:48.391Z,99.90
2018-12-20T04:22:16.012Z,99.90
2018-12-20T04:24:43.559Z,99.90
2018-12-20T04:27:11.060Z,99.90
2018-12-20T04:29:38.708Z,99.90
2018-12-20T04:32:06.282Z,99.90
2018-12-20T04:34:33.769Z,99.90
2018-12-20T04:37:01.314Z,99.90
2018-12-20T04:39:29.066Z,99.90
2018-12-20T04:41:56.666Z,99.90
2018-12-20T04:44:24.305Z,99.90
2018-12-20T04:46:52.123Z,99.90
2018-12-20T04:49:19.675Z,99.90
2018-12-20T04:51:47.273Z,99.90
2018-12-20T04:54:14.924Z,99.90
2018-12-20T04:56:42.488Z,99.90
2018-12-20T04:59:10.346Z,99.90
2018-12-20T05:01:38.006Z,99.90
2018-12-20T05:04:05.670Z,99.90
2018-12-20T05:06:33.184Z,99.90
2018-12-20T05:09:00.841Z,99.90
2018-12-20T05:11:28.487Z,99.90
2018-12-20T05:13:56.418Z,99.90
2018-12-20T05:16:24.002Z,99.90
2018-12-20T05:18:51.453Z,99.90
2018-12-20T05:21:19.105Z,99.90
2018-12-20T05:23:46.618Z,99.90
2018-12-20T05:26:14.120Z,99.90
2018-12-20T05:28:41.868Z,99.90
2018-12-20T05:31:09.386Z,99.90
2018-12-20T05:33:36.949Z,99.90
2018-12-20T05:36:04.398Z,99.90
2018-12-20T05:38:32.029Z,99.90
2018-12-20T05:40:59.723Z,99.90
2018-12-20T05:43:27.311Z,99.90
2018-12-20T05:45:54.998Z,99.90
2018-12-20T05:48:22.695Z,99.90
2018-12-20T05:50:50.361Z,99.90
2018-12-20T05:53:18.031Z,99.90
2018-12-20T05:55:45.616Z,99.90
2018-12-20T05:58:13.360Z,99.90
2018-12-20T06:00:41.137Z,99.90
2018-12-20T06:03:08.673Z,99.90
2018-12-20T06:05:36.502Z,99.90
2018-12-20T06:08:03.968Z,99.90
2018-12-20T06:10:31.420Z,99.90
2018-12-20T06:12:59.132Z,99.90
2018-12-20T06:15:26.712Z,99.90
2018-12-20T06:17:54.154Z,99.90
2018-12-20T06:20:21.608Z,99.90
2018-12-20T06:22:49.135Z,99.90
2018-12-20T06:25:16.604Z,99.90
2018-12-20T06:27:44.060Z,99.90
2018-12-20T06:30:11.558Z,99.90
2018-12-20T06:32:38.996Z,99.90
2018-12-20T06:35:06.520Z,99.90
2018-12-20T06:37:33.974Z,99.90
2018-12-20T06:40:01.416Z,99.90
2018-12-20T06:42:28.871Z,99.90
2018-12-20T06:44:56.319Z,99.90
2018-12-20T06:47:23.757Z,99.90
2018-12-20T06:49:51.234Z,99.90
2018-12-20T06:52:18.702Z,99.90
2018-12-20T06:54:46.141Z,99.90
2018-12-20T06:57:13.576Z,99.90
2018-12-20T06:59:41.059Z,99.90
2018-12-20T07:02:08.549Z,99.90
2018-12-20T07:04:35.999Z,99.90
2018-12-20T07:07:03.484Z,99.90
2018-12-20T07:09:30.943Z,99.90
2018-12-20T07:11:58.376Z,99.90
2018-12-20T07:14:25.854Z,99.90
2018-12-20T07:16:53.292Z,99.90
2018-12-20T07:19:20.748Z,99.90
2018-12-20T07:21:48.192Z,99.90
2018-12-20T07:24:15.820Z,99.90
2018-12-20T07:26:43.303Z,99.90
2018-12-20T07:29:10.874Z,99.90
2018-12-20T07:31:38.312Z,99.90
2018-12-20T07:34:05.768Z,99.90
2018-12-20T07:36:33.217Z,99.90
2018-12-20T07:39:00.681Z,99.90
2018-12-20T07:41:28.124Z,99.90
2018-12-20T07:43:55.669Z,99.90
2018-12-20T07:46:23.099Z,99.90
2018-12-20T07:48:50.571Z,99.90
2018-12-20T07:51:18.326Z,99.90
2018-12-20T07:53:45.777Z,99.90
2018-12-20T07:56:13.207Z,99.90
2018-12-20T07:58:40.731Z,99.90
2018-12-20T08:01:11.846Z,99.90
2018-12-20T08:03:42.375Z,99.90
2018-12-20T08:06:09.830Z,99.90
2018-12-20T08:08:37.268Z,99.90
2018-12-20T08:11:04.750Z,99.90
2018-12-20T08:13:32.197Z,99.90
2018-12-20T08:23:13.040Z,99.90
2018-12-20T08:28:25.337Z,99.90
2018-12-20T08:30:52.808Z,99.90
2018-12-20T08:33:20.237Z,99.90
2018-12-20T08:35:47.749Z,99.90
2018-12-20T08:38:15.332Z,99.90
2018-12-20T08:40:42.781Z,99.90
2018-12-20T08:43:10.236Z,99.90
2018-12-20T08:45:40.830Z,99.90
2018-12-20T08:48:08.331Z,99.90
2018-12-20T08:50:35.780Z,99.90
2018-12-20T08:53:03.228Z,99.90
2018-12-20T08:55:34.028Z,99.90
2018-12-20T08:58:01.478Z,99.90
2018-12-20T09:00:28.952Z,99.90
2018-12-20T09:02:56.414Z,99.90
2018-12-20T09:05:23.875Z,99.90
2018-12-20T09:07:51.330Z,99.90
2018-12-20T09:10:18.944Z,99.90
2018-12-20T09:12:51.328Z,99.90
2018-12-20T09:15:18.784Z,99.90
2018-12-20T09:17:46.244Z,99.90
2018-12-20T09:20:15.693Z,99.90
2018-12-20T09:22:43.108Z,99.90
2018-12-20T09:25:10.561Z,99.90
2018-12-20T09:27:38.007Z,99.90
2018-12-20T09:30:06.839Z,99.90
2018-12-20T09:32:34.283Z,99.90
2018-12-20T09:35:01.722Z,99.90
2018-12-20T09:37:30.146Z,99.90
2018-12-20T09:39:57.587Z,99.90
2018-12-20T09:42:25.031Z,99.90
2018-12-20T09:44:52.478Z,99.90
2018-12-20T09:47:25.631Z,99.90
2018-12-20T09:49:55.107Z,99.90
2018-12-20T09:52:22.616Z,99.90
2018-12-20T09:54:50.058Z,99.90
2018-12-20T09:57:17.503Z,99.90
2018-12-20T09:59:44.949Z,99.90
2018-12-20T10:02:12.407Z,99.90
2018-12-20T10:04:39.853Z,99.90
2018-12-20T10:07:07.384Z,99.90
2018-12-20T10:09:34.860Z,99.90
2018-12-20T10:12:02.289Z,99.90
2018-12-20T10:14:29.738Z,99.90
2018-12-20T10:16:57.177Z,99.90
2018-12-20T10:19:24.663Z,99.90
2018-12-20T10:21:52.113Z,99.90
2018-12-20T10:24:19.560Z,99.90
2018-12-20T10:26:46.999Z,99.90
2018-12-20T10:29:14.432Z,99.90
2018-12-20T10:31:41.884Z,99.90
2018-12-20T10:34:09.313Z,99.90
2018-12-20T10:36:36.757Z,99.90
2018-12-20T10:39:06.414Z,99.90
2018-12-20T10:41:33.865Z,99.90
2018-12-20T10:44:01.321Z,99.90
2018-12-20T10:46:28.838Z,99.90
2018-12-20T10:48:56.298Z,99.90
2018-12-20T10:51:23.757Z,99.90
2018-12-20T10:53:51.204Z,99.30
2018-12-20T10:56:18.647Z,99.30
2018-12-20T10:58:50.559Z,97.80
2018-12-20T11:01:23.661Z,97.90
2018-12-20T11:03:53.053Z,98.20
2018-12-20T11:06:26.282Z,98.20
2018-12-20T11:08:59.466Z,98.50
2018-12-20T11:11:28.916Z,98.00
2018-12-20T11:13:56.907Z,97.70
2018-12-20T11:16:24.373Z,98.50
2018-12-20T11:18:51.796Z,98.30
2018-12-20T11:21:19.363Z,97.80
2018-12-20T11:23:46.806Z,97.90
2018-12-20T11:26:14.250Z,97.90
2018-12-20T11:28:43.675Z,97.50
2018-12-20T11:31:11.145Z,97.10
2018-12-20T11:33:38.656Z,97.70
2018-12-20T11:36:06.132Z,97.30
2018-12-20T11:38:33.725Z,97.30
2018-12-20T11:41:01.166Z,97.90
2018-12-20T11:43:29.050Z,97.10
2018-12-20T11:45:56.625Z,97.30
2018-12-20T11:48:24.107Z,97.10
2018-12-20T11:50:51.609Z,97.30
2018-12-20T11:53:19.107Z,97.00
2018-12-20T11:55:46.582Z,97.00
2018-12-20T11:58:14.021Z,97.20
2018-12-20T12:00:41.502Z,97.30
2018-12-20T12:03:11.990Z,96.70
2018-12-20T12:05:40.451Z,97.10
2018-12-20T12:08:07.964Z,96.90
2018-12-20T12:10:41.348Z,96.60
2018-12-20T12:13:08.848Z,96.70
2018-12-20T12:15:36.313Z,96.50
2018-12-20T12:18:04.868Z,96.10
2018-12-20T12:20:33.289Z,96.10
2018-12-20T12:23:00.908Z,96.10
2018-12-20T12:25:28.429Z,96.00
2018-12-20T12:27:55.877Z,96.00
2018-12-20T12:30:23.343Z,96.30
2018-12-20T12:32:50.849Z,95.90
2018-12-20T12:35:19.273Z,95.90
2018-12-20T12:37:46.775Z,96.30
2018-12-20T12:40:14.218Z,95.90
2018-12-20T12:42:41.694Z,95.90
2018-12-20T12:45:09.213Z,95.80
2018-12-20T12:47:42.479Z,95.80
2018-12-20T12:50:11.916Z,95.90
2018-12-20T12:52:39.408Z,96.10
2018-12-20T12:55:07.705Z,95.70
2018-12-20T12:57:36.471Z,95.80
2018-12-20T13:00:08.042Z,95.80
2018-12-20T13:02:35.535Z,95.90
2018-12-20T13:05:04.805Z,95.70
2018-12-20T13:07:32.275Z,95.50
2018-12-20T13:09:59.750Z,95.30
2018-12-20T13:12:27.213Z,95.10
2018-12-20T13:14:54.695Z,95.40
2018-12-20T13:17:22.163Z,95.50
2018-12-20T13:19:49.620Z,95.40
2018-12-20T13:22:17.098Z,95.40
2018-12-20T13:24:44.594Z,95.40
2018-12-20T13:27:12.053Z,95.20
2018-12-20T13:29:39.599Z,94.80
2018-12-20T13:32:07.069Z,94.50
2018-12-20T13:34:34.537Z,94.20
2018-12-20T13:37:01.997Z,94.00
2018-12-20T13:39:29.491Z,93.60
2018-12-20T13:41:57.828Z,93.70
2018-12-20T13:44:25.310Z,93.80
2018-12-20T13:46:52.886Z,94.00
2018-12-20T13:49:20.706Z,94.10
2018-12-20T13:51:48.165Z,93.70
2018-12-20T13:54:15.652Z,93.60
2018-12-20T13:56:43.135Z,93.70
2018-12-20T13:59:14.160Z,93.50
2018-12-20T14:01:41.614Z,93.80
2018-12-20T14:04:09.130Z,93.80
2018-12-20T14:06:36.609Z,93.50
2018-12-20T14:09:06.953Z,93.00
2018-12-20T14:11:38.969Z,92.90
2018-12-20T14:14:06.476Z,93.50
2018-12-20T14:16:33.947Z,93.20
2018-12-20T14:19:15.040Z,93.20
2018-12-20T14:24:35.835Z,93.70
2018-12-20T14:27:03.334Z,93.80
2018-12-20T14:29:30.782Z,94.00
2018-12-20T14:31:58.224Z,94.10
2018-12-20T14:34:26.645Z,93.70
2018-12-20T14:36:55.105Z,93.90
2018-12-20T14:39:23.525Z,93.70
2018-12-20T14:41:50.948Z,94.10
2018-12-20T14:44:18.411Z,94.20
2018-12-20T14:46:45.843Z,94.10
2018-12-20T14:49:13.307Z,94.10
2018-12-20T14:51:40.748Z,94.40
2018-12-20T14:54:08.227Z,94.40
2018-12-20T14:56:35.727Z,94.30
2018-12-20T14:59:03.192Z,94.40
2018-12-20T15:01:42.771Z,94.60
2018-12-20T15:04:10.328Z,95.20
2018-12-20T15:06:37.883Z,95.50
2018-12-20T15:09:06.788Z,95.70
2018-12-20T15:11:35.258Z,95.90
2018-12-20T15:14:02.777Z,96.30
2018-12-20T15:16:32.191Z,96.40
2018-12-20T15:19:10.537Z,96.60
2018-12-20T15:21:41.517Z,96.30
2018-12-20T15:24:25.484Z,96.20
2018-12-20T15:26:52.918Z,96.40
2018-12-20T15:29:35.579Z,96.20
2018-12-20T15:32:03.031Z,96.50
2018-12-20T15:34:31.225Z,96.40
2018-12-20T15:36:58.688Z,96.40
2018-12-20T15:39:31.176Z,96.70
2018-12-20T15:41:58.686Z,96.80
2018-12-20T15:44:26.181Z,97.10
2018-12-20T15:46:53.649Z,96.80
2018-12-20T15:49:21.141Z,97.00
2018-12-20T15:51:48.678Z,96.80
2018-12-20T15:54:23.717Z,96.80
2018-12-20T15:56:51.164Z,96.70
2018-12-20T15:59:20.590Z,96.90
2018-12-20T16:01:49.986Z,97.10
2018-12-20T16:04:18.359Z,97.10
2018-12-20T16:06:45.812Z,97.10
2018-12-20T16:09:13.272Z,97.10
2018-12-20T16:11:40.767Z,97.30
2018-12-20T16:14:08.294Z,97.50
2018-12-20T16:16:35.740Z,97.70
2018-12-20T16:19:04.955Z,97.80
2018-12-20T16:21:32.787Z,98.00
2018-12-20T16:24:00.362Z,98.10
2018-12-20T16:26:27.812Z,98.40
2018-12-20T16:28:55.239Z,98.50
2018-12-20T16:31:22.697Z,98.50
2018-12-20T16:33:50.119Z,98.70
2018-12-20T16:36:17.574Z,98.70
2018-12-20T16:38:45.023Z,98.60
2018-12-20T16:41:12.496Z,98.80
2018-12-20T16:43:40.964Z,99.00
2018-12-20T16:46:08.430Z,99.10
2018-12-20T16:48:35.859Z,99.20
2018-12-20T16:51:03.393Z,99.30
2018-12-20T16:53:30.823Z,99.70
2018-12-20T16:55:58.315Z,99.90
2018-12-20T16:58:25.864Z,99.90
2018-12-20T17:00:54.264Z,99.90
2018-12-20T17:03:21.700Z,99.90
2018-12-20T17:05:50.105Z,99.90
2018-12-20T17:08:18.518Z,99.90
2018-12-20T17:10:45.973Z,99.90
2018-12-20T17:13:13.406Z,99.90
2018-12-20T17:15:40.874Z,99.90
2018-12-20T17:18:08.347Z,99.90
2018-12-20T17:20:35.867Z,99.90
2018-12-20T17:23:03.372Z,99.90
2018-12-20T17:25:31.817Z,99.90
2018-12-20T17:27:59.288Z,99.90
2018-12-20T17:30:26.724Z,99.90
2018-12-20T17:32:54.150Z,99.90
2018-12-20T17:35:21.607Z,99.90
2018-12-20T17:37:49.038Z,99.90
2018-12-20T17:40:16.483Z,99.90
2018-12-20T17:42:43.921Z,99.90
2018-12-20T17:45:11.383Z,99.90
2018-12-20T17:47:38.865Z,99.90
2018-12-20T17:50:07.812Z,99.90
2018-12-20T17:52:35.255Z,99.90
2018-12-20T17:55:02.735Z,99.90
2018-12-20T17:57:30.206Z,99.90
2018-12-20T17:59:57.636Z,99.90
2018-12-20T18:02:25.081Z,99.90
2018-12-20T18:04:52.682Z,99.90
2018-12-20T18:07:20.167Z,99.90
2018-12-20T18:09:47.627Z,99.90
2018-12-20T18:12:15.168Z,99.90
2018-12-20T18:14:42.596Z,99.90
2018-12-20T18:17:10.053Z,99.90
2018-12-20T18:19:39.190Z,99.90
2018-12-20T18:22:06.928Z,99.90
2018-12-20T18:24:34.364Z,99.90
2018-12-20T18:27:01.856Z,99.90
2018-12-20T18:29:29.280Z,99.90
2018-12-20T18:31:56.738Z,99.90
2018-12-20T18:34:24.183Z,99.90
2018-12-20T18:36:51.633Z,99.90
2018-12-20T18:39:19.059Z,99.90
2018-12-20T18:41:46.508Z,99.90
2018-12-20T18:44:13.963Z,99.90
2018-12-20T18:46:41.422Z,99.80
2018-12-20T18:49:08.848Z,99.80
2018-12-20T18:51:36.296Z,99.80
2018-12-20T18:54:03.803Z,99.80
2018-12-20T18:56:31.255Z,99.70
2018-12-20T18:58:58.698Z,99.70
2018-12-20T19:01:26.150Z,99.40
2018-12-20T19:03:53.572Z,99.50
2018-12-20T19:06:23.130Z,99.50
2018-12-20T19:08:50.481Z,99.50
2018-12-20T19:11:17.916Z,99.60
2018-12-20T19:13:45.363Z,99.00
2018-12-20T19:18:41.216Z,99.00
2018-12-20T19:21:08.752Z,99.00
2018-12-20T19:28:31.183Z,99.00
2018-12-20T19:38:22.919Z,99.00
2018-12-20T19:40:50.348Z,99.10
2018-12-20T19:45:46.164Z,99.20
2018-12-20T19:48:13.976Z,99.30
2018-12-20T19:50:41.429Z,99.20
2018-12-20T20:07:57.648Z,98.90
2018-12-20T20:10:25.108Z,98.90
2018-12-20T20:15:20.009Z,98.80
2018-12-20T20:17:47.452Z,98.80
2018-12-20T20:20:14.894Z,98.80
2018-12-20T20:30:09.676Z,99.00
2018-12-20T20:40:00.610Z,99.10
2018-12-20T20:44:55.543Z,99.20
2018-12-20T20:47:23.040Z,99.10
2018-12-20T20:54:45.426Z,99.80
2018-12-20T20:57:12.872Z,99.90
2018-12-20T21:11:58.284Z,99.90
2018-12-20T21:14:25.750Z,99.90
2018-12-20T21:24:15.576Z,99.90
2018-12-20T21:34:05.448Z,99.90
2018-12-20T21:41:27.778Z,99.90
2018-12-20T21:43:55.220Z,99.90
2018-12-20T21:46:22.657Z,99.90
2018-12-20T21:56:12.618Z,99.90
2018-12-20T22:01:07.528Z,99.90
2018-12-20T22:03:34.980Z,99.90
2018-12-20T22:08:29.864Z,99.90
2018-12-20T22:13:24.758Z,99.90
2018-12-20T22:15:52.260Z,99.90
2018-12-20T22:20:47.769Z,99.90
2018-12-20T22:23:15.316Z,99.90
2018-12-20T22:25:42.752Z,99.90
2018-12-20T22:30:37.640Z,99.90
2018-12-20T22:33:05.114Z,99.90
2018-12-20T22:35:32.555Z,99.90
2018-12-20T22:38:00.040Z,99.90
2018-12-20T22:40:27.469Z,99.90
2018-12-20T22:42:54.927Z,99.90
2018-12-20T22:45:22.363Z,99.90
2018-12-20T22:50:17.247Z,99.90
2018-12-20T23:00:09.148Z,99.90
2018-12-20T23:05:04.732Z,99.90
2018-12-20T23:07:32.168Z,99.90
2018-12-20T23:09:59.624Z,99.90
2018-12-20T23:12:27.074Z,99.90
2018-12-20T23:14:54.538Z,99.90
2018-12-20T23:17:22.493Z,99.90
2018-12-20T23:19:50.016Z,99.90
2018-12-20T23:22:17.470Z,99.90
2018-12-20T23:24:44.918Z,99.90
2018-12-20T23:32:07.252Z,99.90
2018-12-20T23:39:36.168Z,99.90
2018-12-20T23:42:03.767Z,99.90
2018-12-20T23:44:31.223Z,99.90
2018-12-20T23:49:26.132Z,99.90
2018-12-20T23:51:53.556Z,99.90
2018-12-20T23:59:16.035Z,99.90
